Time;durP1;ratioP1;P1;durP2;ratioP2;P2;SDS_P1;SDS_P2;PMS_P1;PMS_P2;Temp;Humidity;BMP_temperature;BMP_pressure;BME280_temperature;BME280_humidity;BME280_pressure;Samples;Min_cycle;Max_cycle;Signal;HPM_P1;HPM_P2
2023/09/07 00:01:15;;;;;;;;;;;20.10;99.90;;;;;;15693566;22;19923;-36
2023/09/07 00:07:17;;;;;;;;;;;19.80;99.90;;;;;;15695161;22;19957;-35
2023/09/07 00:13:19;;;;;;;;;;;20.00;99.90;;;;;;15695947;22;20594;-35
2023/09/07 00:19:21;;;;;;;;;;;20.00;99.90;;;;;;15698695;22;19923;-35
2023/09/07 00:25:23;;;;;;;;;;;20.00;99.90;;;;;;15697994;22;19945;-35
2023/09/07 00:31:24;;;;;;;;;;;20.00;99.90;;;;;;15697273;22;19922;-35
2023/09/07 00:37:26;;;;;;;;;;;19.80;99.90;;;;;;15698230;22;20355;-36
2023/09/07 00:43:28;;;;;;;;;;;19.70;99.90;;;;;;15683352;22;19975;-36
2023/09/07 00:49:30;;;;;;;;;;;19.60;99.90;;;;;;15697536;22;20049;-36
2023/09/07 00:55:34;;;;;;;;;;;19.40;99.90;;;;;;15695293;22;20005;-36
2023/09/07 01:01:36;;;;;;;;;;;19.50;99.90;;;;;;15644269;22;20264;-36
2023/09/07 01:07:43;;;;;;;;;;;19.40;99.90;;;;;;15670860;22;19930;-35
2023/09/07 01:13:44;;;;;;;;;;;19.20;99.90;;;;;;15675215;22;19928;-36
2023/09/07 01:19:46;;;;;;;;;;;19.20;99.90;;;;;;15681358;22;20032;-36
2023/09/07 01:25:48;;;;;;;;;;;19.20;99.90;;;;;;15675562;22;19929;-36
2023/09/07 01:31:50;;;;;;;;;;;19.30;99.90;;;;;;15683398;22;19923;-36
2023/09/07 01:37:52;;;;;;;;;;;19.20;99.90;;;;;;15681008;22;19919;-36
2023/09/07 01:43:54;;;;;;;;;;;19.40;99.90;;;;;;15682092;22;19983;-36
2023/09/07 01:49:55;;;;;;;;;;;19.50;99.90;;;;;;15680124;22;19923;-36
2023/09/07 01:55:59;;;;;;;;;;;19.40;99.90;;;;;;15692227;22;20384;-36
2023/09/07 02:02:01;;;;;;;;;;;19.20;99.90;;;;;;15700236;22;19971;-36
2023/09/07 02:08:03;;;;;;;;;;;19.10;99.90;;;;;;15696324;22;19922;-36
2023/09/07 02:14:05;;;;;;;;;;;18.70;99.90;;;;;;15703998;22;19961;-36
2023/09/07 02:20:10;;;;;;;;;;;18.60;99.90;;;;;;15698435;22;19933;-36
2023/09/07 02:26:12;;;;;;;;;;;18.70;99.90;;;;;;15695903;22;19922;-36
2023/09/07 02:32:14;;;;;;;;;;;18.70;99.90;;;;;;15687722;22;20028;-35
2023/09/07 02:38:16;;;;;;;;;;;18.80;99.90;;;;;;15697377;22;19969;-36
2023/09/07 02:44:18;;;;;;;;;;;18.50;99.90;;;;;;15696104;22;20364;-36
2023/09/07 02:50:20;;;;;;;;;;;18.40;99.90;;;;;;15703145;22;20127;-36
2023/09/07 02:56:21;;;;;;;;;;;18.60;99.90;;;;;;15692246;22;20005;-36
2023/09/07 03:02:23;;;;;;;;;;;18.50;99.90;;;;;;15664149;22;19946;-36
2023/09/07 03:08:25;;;;;;;;;;;18.50;99.90;;;;;;15679093;22;19929;-35
2023/09/07 03:14:27;;;;;;;;;;;18.40;99.90;;;;;;15677993;22;19990;-36
2023/09/07 03:20:29;;;;;;;;;;;18.30;99.90;;;;;;15683080;22;19999;-36
2023/09/07 03:26:30;;;;;;;;;;;18.30;99.90;;;;;;15683276;22;20339;-35
2023/09/07 03:32:33;;;;;;;;;;;18.10;99.90;;;;;;15676213;22;20009;-36
2023/09/07 03:38:35;;;;;;;;;;;17.90;99.90;;;;;;15688290;22;19918;-36
2023/09/07 03:44:39;;;;;;;;;;;17.70;99.90;;;;;;15672374;22;19945;-35
2023/09/07 03:50:41;;;;;;;;;;;17.90;99.90;;;;;;15683097;22;20001;-36
2023/09/07 03:56:42;;;;;;;;;;;17.90;99.90;;;;;;15688668;22;20293;-36
2023/09/07 04:02:44;;;;;;;;;;;17.80;99.90;;;;;;15700922;22;20357;-36
2023/09/07 04:08:47;;;;;;;;;;;17.80;99.90;;;;;;15670503;22;20320;-36
2023/09/07 04:14:48;;;;;;;;;;;17.70;99.90;;;;;;15673679;22;19926;-35
2023/09/07 04:20:50;;;;;;;;;;;17.60;99.90;;;;;;15697000;22;20134;-36
2023/09/07 04:26:52;;;;;;;;;;;17.60;99.90;;;;;;15695931;22;19922;-36
2023/09/07 04:32:54;;;;;;;;;;;17.60;99.90;;;;;;15696454;22;19950;-38
2023/09/07 04:38:56;;;;;;;;;;;17.50;99.90;;;;;;15701281;22;19922;-36
2023/09/07 04:44:57;;;;;;;;;;;17.60;99.90;;;;;;15698026;22;20260;-36
2023/09/07 04:51:00;;;;;;;;;;;17.60;99.90;;;;;;15695430;22;19922;-36
2023/09/07 04:57:01;;;;;;;;;;;17.60;99.90;;;;;;15675949;22;19930;-36
2023/09/07 05:03:03;;;;;;;;;;;17.50;99.90;;;;;;15635950;22;20264;-36
2023/09/07 05:09:05;;;;;;;;;;;17.40;99.90;;;;;;15656687;22;19922;-35
2023/09/07 05:15:09;;;;;;;;;;;17.50;99.90;;;;;;15675435;22;20372;-36
2023/09/07 05:21:14;;;;;;;;;;;17.60;99.90;;;;;;15681251;22;19950;-36
2023/09/07 05:27:16;;;;;;;;;;;17.70;99.90;;;;;;15677936;22;20040;-36
2023/09/07 05:33:18;;;;;;;;;;;17.90;99.90;;;;;;15686249;22;19922;-36
2023/09/07 05:39:20;;;;;;;;;;;18.00;99.90;;;;;;15668853;22;19923;-36
2023/09/07 05:45:22;;;;;;;;;;;18.10;99.90;;;;;;15657811;22;19926;-36
2023/09/07 05:51:24;;;;;;;;;;;18.10;99.90;;;;;;15678076;22;19922;-36
2023/09/07 05:57:25;;;;;;;;;;;18.10;99.90;;;;;;15689588;22;19975;-36
2023/09/07 06:03:27;;;;;;;;;;;18.40;99.90;;;;;;15700902;22;19957;-37
2023/09/07 06:09:29;;;;;;;;;;;18.50;99.90;;;;;;15699646;22;19926;-37
2023/09/07 06:15:31;;;;;;;;;;;18.80;99.90;;;;;;15695473;22;20026;-37
2023/09/07 06:21:33;;;;;;;;;;;19.20;99.90;;;;;;15696773;22;19953;-36
2023/09/07 06:27:35;;;;;;;;;;;19.60;99.90;;;;;;15695251;22;19969;-37
2023/09/07 06:33:36;;;;;;;;;;;19.60;99.90;;;;;;15698079;22;19922;-36
2023/09/07 06:39:38;;;;;;;;;;;19.80;99.90;;;;;;15697298;22;20093;-37
2023/09/07 06:45:40;;;;;;;;;;;20.10;99.90;;;;;;15689528;22;19927;-37
2023/09/07 06:51:41;;;;;;;;;;;20.30;99.90;;;;;;15688150;22;19962;-37
2023/09/07 06:57:43;;;;;;;;;;;19.60;99.90;;;;;;15675935;22;19922;-37
2023/09/07 07:03:45;;;;;;;;;;;19.40;99.90;;;;;;15652108;22;19994;-37
2023/09/07 07:09:47;;;;;;;;;;;19.80;99.90;;;;;;15677446;22;20169;-37
2023/09/07 07:15:49;;;;;;;;;;;20.00;99.90;;;;;;15680793;22;20289;-37
2023/09/07 07:22:08;;;;;;;;;;;20.00;99.90;;;;;;15678224;22;19964;-37
2023/09/07 07:28:10;;;;;;;;;;;20.10;99.90;;;;;;15655111;22;19950;-37
2023/09/07 07:34:12;;;;;;;;;;;20.20;99.90;;;;;;15679247;22;19954;-36
2023/09/07 07:40:14;;;;;;;;;;;20.40;99.90;;;;;;15680103;22;19957;-37
2023/09/07 07:46:16;;;;;;;;;;;20.50;99.90;;;;;;15682475;22;19997;-37
2023/09/07 07:52:18;;;;;;;;;;;20.70;99.90;;;;;;15652559;22;19975;-37
2023/09/07 07:58:20;;;;;;;;;;;20.90;99.90;;;;;;15692526;22;19966;-37
2023/09/07 08:04:21;;;;;;;;;;;21.20;99.90;;;;;;15699008;22;19922;-37
2023/09/07 08:10:23;;;;;;;;;;;21.50;99.90;;;;;;15668519;22;20390;-37
2023/09/07 08:16:25;;;;;;;;;;;21.60;99.90;;;;;;15669068;22;20312;-37
2023/09/07 08:22:28;;;;;;;;;;;21.90;99.90;;;;;;15665748;22;20406;-36
2023/09/07 08:28:30;;;;;;;;;;;22.10;99.90;;;;;;15698508;22;19979;-37
2023/09/07 08:34:35;;;;;;;;;;;22.20;99.90;;;;;;15696021;22;19966;-35
2023/09/07 08:40:40;;;;;;;;;;;22.40;99.90;;;;;;15695702;22;19930;-36
2023/09/07 08:46:42;;;;;;;;;;;22.60;99.90;;;;;;15691651;22;19967;-36
2023/09/07 08:52:45;;;;;;;;;;;22.80;99.90;;;;;;15695899;22;20044;-36
2023/09/07 08:58:49;;;;;;;;;;;23.10;99.90;;;;;;15668961;22;19933;-36
2023/09/07 09:04:52;;;;;;;;;;;23.40;99.90;;;;;;15674289;22;20001;-36
2023/09/07 09:11:03;;;;;;;;;;;23.80;99.90;;;;;;15678182;22;20328;-37
2023/09/07 09:17:05;;;;;;;;;;;24.00;99.90;;;;;;15680855;22;20025;-36
2023/09/07 09:23:07;;;;;;;;;;;24.60;99.90;;;;;;15660712;22;19927;-36
2023/09/07 09:29:09;;;;;;;;;;;24.90;99.90;;;;;;15680112;22;20267;-36
2023/09/07 09:35:11;;;;;;;;;;;25.10;99.90;;;;;;15683786;22;19962;-36
2023/09/07 09:41:12;;;;;;;;;;;25.10;99.90;;;;;;15659209;22;20367;-38
2023/09/07 09:47:15;;;;;;;;;;;25.20;99.90;;;;;;15682607;22;19945;-37
2023/09/07 09:53:21;;;;;;;;;;;25.40;99.90;;;;;;15686188;22;19930;-36
2023/09/07 09:59:23;;;;;;;;;;;25.50;99.90;;;;;;15700539;22;19923;-36
2023/09/07 10:05:25;;;;;;;;;;;25.70;99.90;;;;;;15690312;22;21065;-36
2023/09/07 10:11:35;;;;;;;;;;;26.10;99.90;;;;;;15701039;22;19962;-36
2023/09/07 10:17:37;;;;;;;;;;;26.00;99.90;;;;;;15702488;22;20334;-37
2023/09/07 10:23:40;;;;;;;;;;;26.10;99.90;;;;;;15699119;22;19929;-36
2023/09/07 10:29:43;;;;;;;;;;;26.10;99.90;;;;;;15674593;22;19929;-37
2023/09/07 10:35:45;;;;;;;;;;;26.50;99.90;;;;;;15699386;22;19945;-37
2023/09/07 10:41:46;;;;;;;;;;;26.30;99.90;;;;;;15703378;22;19922;-35
2023/09/07 10:47:48;;;;;;;;;;;26.50;99.90;;;;;;15700120;22;19953;-36
2023/09/07 10:53:50;;;;;;;;;;;27.10;99.90;;;;;;15691046;22;19927;-36
2023/09/07 10:59:55;;;;;;;;;;;27.00;99.90;;;;;;15640138;22;19930;-37
2023/09/07 11:05:59;;;;;;;;;;;27.50;99.90;;;;;;15677049;22;19925;-36
2023/09/07 11:12:04;;;;;;;;;;;27.10;99.90;;;;;;15676073;22;19930;-36
2023/09/07 11:18:06;;;;;;;;;;;27.40;99.90;;;;;;15648974;22;20474;-36
2023/09/07 11:24:08;;;;;;;;;;;27.40;99.90;;;;;;15662532;22;20260;-35
2023/09/07 11:30:10;;;;;;;;;;;27.50;99.90;;;;;;15651818;22;20818;-35
2023/09/07 11:36:12;;;;;;;;;;;27.50;99.90;;;;;;15685087;22;19942;-36
2023/09/07 11:42:14;;;;;;;;;;;27.80;99.90;;;;;;15662896;22;20017;-36
2023/09/07 11:48:15;;;;;;;;;;;28.20;99.90;;;;;;15694344;22;20324;-36
2023/09/07 11:54:17;;;;;;;;;;;27.70;99.90;;;;;;15701001;22;19922;-37
2023/09/07 12:00:19;;;;;;;;;;;28.00;99.90;;;;;;15698939;22;19971;-35
2023/09/07 12:06:21;;;;;;;;;;;28.60;99.90;;;;;;15671646;22;19933;-37
2023/09/07 12:12:23;;;;;;;;;;;28.60;99.90;;;;;;15699797;22;20331;-37
2023/09/07 12:18:25;;;;;;;;;;;28.40;99.90;;;;;;15696582;22;20515;-37
2023/09/07 12:24:27;;;;;;;;;;;28.20;99.90;;;;;;15701225;22;19919;-37
2023/09/07 12:30:29;;;;;;;;;;;28.30;99.90;;;;;;15698285;22;20393;-36
2023/09/07 12:36:31;;;;;;;;;;;28.40;99.90;;;;;;15697562;22;20052;-36
2023/09/07 12:42:33;;;;;;;;;;;28.10;99.90;;;;;;15702722;22;19922;-37
2023/09/07 12:48:35;;;;;;;;;;;28.40;99.90;;;;;;15670605;22;19922;-36
2023/09/07 12:54:37;;;;;;;;;;;28.60;99.90;;;;;;15698726;22;20494;-37
2023/09/07 13:00:38;;;;;;;;;;;28.80;99.90;;;;;;15665017;22;19953;-36
2023/09/07 13:06:40;;;;;;;;;;;28.90;99.90;;;;;;15700451;22;20029;-37
2023/09/07 13:12:42;;;;;;;;;;;28.60;99.90;;;;;;15697374;22;19958;-36
2023/09/07 13:18:44;;;;;;;;;;;28.60;99.90;;;;;;15698905;22;20332;-36
2023/09/07 13:24:45;;;;;;;;;;;28.30;99.90;;;;;;15674071;22;19965;-36
2023/09/07 13:30:47;;;;;;;;;;;27.90;99.90;;;;;;15697522;22;20486;-36
2023/09/07 13:36:49;;;;;;;;;;;27.80;99.90;;;;;;15694649;22;20360;-37
2023/09/07 13:42:51;;;;;;;;;;;27.90;99.90;;;;;;15662432;22;20320;-38
2023/09/07 13:48:53;;;;;;;;;;;27.90;99.90;;;;;;15659489;22;19965;-37
2023/09/07 13:54:54;;;;;;;;;;;27.90;99.90;;;;;;15697034;22;19922;-37
2023/09/07 14:00:56;;;;;;;;;;;27.80;99.90;;;;;;15695517;22;19919;-37
2023/09/07 14:06:58;;;;;;;;;;;27.80;99.90;;;;;;15700376;22;20364;-37
2023/09/07 14:13:00;;;;;;;;;;;27.70;99.90;;;;;;15700575;22;19933;-38
2023/09/07 14:19:01;;;;;;;;;;;27.60;99.90;;;;;;15699972;22;20013;-37
2023/09/07 14:25:03;;;;;;;;;;;27.70;99.90;;;;;;15700975;22;19979;-36
2023/09/07 14:31:07;;;;;;;;;;;27.90;99.90;;;;;;15701006;22;19918;-39
2023/09/07 14:37:09;;;;;;;;;;;27.80;99.90;;;;;;15700134;22;20177;-36
2023/09/07 14:43:11;;;;;;;;;;;27.90;99.90;;;;;;15698793;22;20180;-38
2023/09/07 14:49:13;;;;;;;;;;;27.90;99.90;;;;;;15699521;22;19958;-36
2023/09/07 14:55:14;;;;;;;;;;;28.10;99.90;;;;;;15700531;22;20020;-36
2023/09/07 15:01:16;;;;;;;;;;;28.30;99.90;;;;;;15699159;22;20099;-36
2023/09/07 15:07:18;;;;;;;;;;;28.40;99.90;;;;;;15698248;22;20644;-37
2023/09/07 15:13:21;;;;;;;;;;;28.30;99.90;;;;;;15696127;22;19925;-36
2023/09/07 15:19:23;;;;;;;;;;;28.60;99.90;;;;;;15696413;22;19929;-37
2023/09/07 15:25:26;;;;;;;;;;;28.50;99.90;;;;;;15696007;22;19945;-36
2023/09/07 15:31:29;;;;;;;;;;;28.30;99.90;;;;;;15699810;22;19922;-38
2023/09/07 15:37:31;;;;;;;;;;;28.30;99.90;;;;;;15696621;22;19957;-36
2023/09/07 15:43:33;;;;;;;;;;;28.10;99.90;;;;;;15696763;22;19922;-36
2023/09/07 15:49:35;;;;;;;;;;;28.00;99.90;;;;;;15697134;22;20033;-36
2023/09/07 15:55:39;;;;;;;;;;;27.90;99.90;;;;;;15682816;22;20009;-37
2023/09/07 16:01:40;;;;;;;;;;;27.90;99.90;;;;;;15693173;22;20437;-36
2023/09/07 16:07:42;;;;;;;;;;;27.80;99.90;;;;;;15702032;22;19923;-37
2023/09/07 16:13:45;;;;;;;;;;;27.70;99.90;;;;;;15695555;22;20013;-37
2023/09/07 16:19:46;;;;;;;;;;;27.80;99.90;;;;;;15697621;22;20264;-36
2023/09/07 16:25:48;;;;;;;;;;;27.70;99.90;;;;;;15699870;22;19926;-36
2023/09/07 16:31:50;;;;;;;;;;;27.60;99.90;;;;;;15669696;22;19981;-36
2023/09/07 16:37:52;;;;;;;;;;;27.50;99.90;;;;;;15700626;22;20268;-37
2023/09/07 16:43:54;;;;;;;;;;;27.50;99.90;;;;;;15699166;22;19929;-36
2023/09/07 16:49:56;;;;;;;;;;;27.40;99.90;;;;;;15667326;22;19926;-36
2023/09/07 16:55:57;;;;;;;;;;;27.30;99.90;;;;;;15694917;22;19997;-36
2023/09/07 17:01:59;;;;;;;;;;;27.10;99.90;;;;;;15695977;22;19992;-36
2023/09/07 17:08:01;;;;;;;;;;;27.10;99.90;;;;;;15701585;22;19926;-36
2023/09/07 17:14:03;;;;;;;;;;;26.90;99.90;;;;;;15696599;22;19957;-37
2023/09/07 17:20:05;;;;;;;;;;;26.70;99.90;;;;;;15700673;22;19977;-36
2023/09/07 17:26:07;;;;;;;;;;;26.40;99.90;;;;;;15692855;22;19927;-37
2023/09/07 17:32:09;;;;;;;;;;;26.20;99.90;;;;;;15699264;22;19923;-36
2023/09/07 17:38:10;;;;;;;;;;;25.90;99.90;;;;;;15697002;22;20306;-36
2023/09/07 17:44:12;;;;;;;;;;;25.90;99.90;;;;;;15676327;22;20044;-39
2023/09/07 17:50:14;;;;;;;;;;;25.70;99.90;;;;;;15694391;22;20375;-36
2023/09/07 17:56:16;;;;;;;;;;;25.50;99.90;;;;;;15700959;22;19922;-36
2023/09/07 18:02:19;;;;;;;;;;;25.30;99.90;;;;;;15697555;22;19922;-36
2023/09/07 18:08:21;;;;;;;;;;;25.00;99.90;;;;;;15668260;22;20276;-36
2023/09/07 18:14:24;;;;;;;;;;;24.80;99.90;;;;;;15702151;22;19930;-36
2023/09/07 18:20:26;;;;;;;;;;;24.60;99.90;;;;;;15696024;22;19923;-38
2023/09/07 18:26:29;;;;;;;;;;;24.40;99.90;;;;;;15703374;22;20452;-36
2023/09/07 18:32:31;;;;;;;;;;;24.20;99.90;;;;;;15697732;22;20016;-36
2023/09/07 18:38:33;;;;;;;;;;;24.10;99.90;;;;;;15695373;22;20032;-36
2023/09/07 18:44:36;;;;;;;;;;;23.90;99.90;;;;;;15697961;22;20284;-36
2023/09/07 18:50:37;;;;;;;;;;;23.90;99.90;;;;;;15701009;22;19984;-36
2023/09/07 18:56:39;;;;;;;;;;;24.00;99.90;;;;;;15702654;22;19927;-36
2023/09/07 19:02:41;;;;;;;;;;;23.90;99.90;;;;;;15699087;22;19923;-36
2023/09/07 19:08:43;;;;;;;;;;;23.70;99.90;;;;;;15673028;22;20317;-37
2023/09/07 19:14:45;;;;;;;;;;;23.60;99.90;;;;;;15698808;22;19931;-35
2023/09/07 19:20:51;;;;;;;;;;;23.30;99.90;;;;;;15700176;22;19923;-37
2023/09/07 19:26:53;;;;;;;;;;;23.20;99.90;;;;;;15700569;22;19922;-36
2023/09/07 19:32:55;;;;;;;;;;;23.70;99.90;;;;;;15699165;22;20351;-36
2023/09/07 19:38:58;;;;;;;;;;;23.80;99.90;;;;;;15702920;22;20229;-36
2023/09/07 19:45:04;;;;;;;;;;;23.70;99.90;;;;;;15666224;22;20341;-36
2023/09/07 19:51:12;;;;;;;;;;;23.70;99.90;;;;;;15692120;22;19971;-36
2023/09/07 19:57:14;;;;;;;;;;;23.60;99.90;;;;;;15697894;22;20052;-36
2023/09/07 20:03:16;;;;;;;;;;;23.50;99.90;;;;;;15701471;22;20360;-36
2023/09/07 20:09:20;;;;;;;;;;;23.30;99.90;;;;;;15699073;22;19949;-36
2023/09/07 20:15:22;;;;;;;;;;;23.10;99.90;;;;;;15701674;22;20347;-36
2023/09/07 20:21:24;;;;;;;;;;;23.10;99.90;;;;;;15673317;22;19923;-36
2023/09/07 20:27:26;;;;;;;;;;;22.70;99.90;;;;;;15702615;22;20331;-36
2023/09/07 20:33:28;;;;;;;;;;;22.60;99.90;;;;;;15697464;22;19919;-36
2023/09/07 20:39:29;;;;;;;;;;;22.40;99.90;;;;;;15697535;22;20357;-36
2023/09/07 20:45:31;;;;;;;;;;;22.40;99.90;;;;;;15699700;22;19922;-35
2023/09/07 20:51:36;;;;;;;;;;;22.30;99.90;;;;;;15699415;22;19923;-36
2023/09/07 20:57:38;;;;;;;;;;;22.30;99.90;;;;;;15673280;22;19922;-36
2023/09/07 21:03:40;;;;;;;;;;;22.10;99.90;;;;;;15697459;22;19922;-36
2023/09/07 21:09:41;;;;;;;;;;;22.00;99.90;;;;;;15696711;22;20277;-36
2023/09/07 21:15:43;;;;;;;;;;;21.90;99.90;;;;;;15703213;22;20045;-35
2023/09/07 21:21:45;;;;;;;;;;;21.70;99.90;;;;;;15704463;22;19923;-35
2023/09/07 21:27:47;;;;;;;;;;;21.10;99.90;;;;;;15706465;22;20012;-35
2023/09/07 21:33:48;;;;;;;;;;;20.70;99.90;;;;;;15702214;22;20240;-35
2023/09/07 21:39:51;;;;;;;;;;;20.80;99.90;;;;;;15703622;22;20255;-35
2023/09/07 21:45:53;;;;;;;;;;;20.60;99.90;;;;;;15678165;22;20336;-36
2023/09/07 21:51:55;;;;;;;;;;;19.90;99.90;;;;;;15700935;22;19923;-35
2023/09/07 21:57:57;;;;;;;;;;;20.30;99.90;;;;;;15701800;22;20256;-35
2023/09/07 22:03:58;;;;;;;;;;;20.80;99.90;;;;;;15705261;22;20342;-35
2023/09/07 22:10:00;;;;;;;;;;;20.90;99.90;;;;;;15700822;22;19923;-35
2023/09/07 22:16:02;;;;;;;;;;;20.90;99.90;;;;;;15701608;22;19933;-35
2023/09/07 22:22:05;;;;;;;;;;;20.90;99.90;;;;;;15695559;22;19929;-38
2023/09/07 22:28:09;;;;;;;;;;;20.90;99.90;;;;;;15703252;22;20036;-35
2023/09/07 22:34:10;;;;;;;;;;;20.90;99.90;;;;;;15698448;22;19918;-35
2023/09/07 22:40:15;;;;;;;;;;;20.90;99.90;;;;;;15697984;22;19938;-35
2023/09/07 22:46:17;;;;;;;;;;;20.70;99.90;;;;;;15701469;22;19975;-35
2023/09/07 22:52:19;;;;;;;;;;;20.80;99.90;;;;;;15701556;22;20325;-35
2023/09/07 22:58:21;;;;;;;;;;;20.70;99.90;;;;;;15674234;22;20366;-36
2023/09/07 23:04:22;;;;;;;;;;;20.70;99.90;;;;;;15701918;22;19930;-35
2023/09/07 23:10:24;;;;;;;;;;;20.60;99.90;;;;;;15689550;22;19929;-35
2023/09/07 23:16:27;;;;;;;;;;;20.40;99.90;;;;;;15701809;22;19958;-35
2023/09/07 23:22:30;;;;;;;;;;;20.30;99.90;;;;;;15701395;22;20775;-35
2023/09/07 23:28:33;;;;;;;;;;;20.30;99.90;;;;;;15701060;22;20380;-35
2023/09/07 23:34:35;;;;;;;;;;;20.30;99.90;;;;;;15698960;22;20473;-35
2023/09/07 23:40:37;;;;;;;;;;;20.20;99.90;;;;;;15685347;22;20409;-35
2023/09/07 23:46:38;;;;;;;;;;;20.20;99.90;;;;;;15668372;22;20314;-35
2023/09/07 23:52:41;;;;;;;;;;;20.20;99.90;;;;;;15687826;22;19922;-35
2023/09/07 23:58:43;;;;;;;;;;;20.10;99.90;;;;;;15679700;22;20293;-35
